Weather at Swan Field

Public forecast

Using degrees Fahrenheit for public forecast. Weather courtesy of forecast.io.

Closest aviation weather report (METAR) to Swan Field

Closest report is Wautoma Municipal Airport, 14.9 nm (27.7 km) SSE. Retrieved 2021/06/13 08:56 UTC (53 minutes ago):

KY50 130856Z AUTO 00000KT 10SM CLR 14/11 A2999 RMK AO2 SLP150 6//// T01390111 53002

Closest aviation forecast (TAF) to Swan Field

Closest forecast is Central Wisconsin Airport, 31.9 nm (59.2 km) NNW. Retrieved 2021/06/13 06:22 UTC (3 hours ago):

TAF KCWA 130520Z 1306/1406 30003KT P6SM SKC FM131600 29007G15KT P6SM SCT070 FM132200 25007KT P6SM SCT090 FM140100 02008KT P6SM SCT035 BKN070 PROB30 1401/1403 3SM TSRA OVC035CB FM140300 03005KT P6SM SCT070